sensor_id;sensor_type;location;lat;lon;timestamp;pressure;altitude;pressure_sealevel;temperature
15607;BMP180;7865;50.918;4.510;2023-04-15T00:03:04;100118.00;;;8.10
15607;BMP180;7865;50.918;4.510;2023-04-15T00:08:07;100116.00;;;8.20
15607;BMP180;7865;50.918;4.510;2023-04-15T00:13:10;100117.00;;;8.20
15607;BMP180;7865;50.918;4.510;2023-04-15T00:18:12;100126.00;;;8.30
15607;BMP180;7865;50.918;4.510;2023-04-15T00:23:14;100121.00;;;8.30
15607;BMP180;7865;50.918;4.510;2023-04-15T00:28:17;100127.00;;;8.40
15607;BMP180;7865;50.918;4.510;2023-04-15T00:33:19;100123.00;;;8.40
15607;BMP180;7865;50.918;4.510;2023-04-15T00:38:21;100125.00;;;8.40
15607;BMP180;7865;50.918;4.510;2023-04-15T00:43:23;100118.00;;;8.40
15607;BMP180;7865;50.918;4.510;2023-04-15T00:48:27;100126.00;;;8.40
15607;BMP180;7865;50.918;4.510;2023-04-15T00:53:29;100121.00;;;8.40
15607;BMP180;7865;50.918;4.510;2023-04-15T00:58:31;100130.00;;;8.30
15607;BMP180;7865;50.918;4.510;2023-04-15T01:03:33;100139.00;;;8.30
15607;BMP180;7865;50.918;4.510;2023-04-15T01:08:37;100136.00;;;8.40
15607;BMP180;7865;50.918;4.510;2023-04-15T01:13:42;100131.00;;;8.50
15607;BMP180;7865;50.918;4.510;2023-04-15T01:18:44;100119.00;;;8.40
15607;BMP180;7865;50.918;4.510;2023-04-15T01:23:47;100119.00;;;8.40
15607;BMP180;7865;50.918;4.510;2023-04-15T01:28:49;100125.00;;;8.40
15607;BMP180;7865;50.918;4.510;2023-04-15T01:33:53;100119.00;;;8.40
15607;BMP180;7865;50.918;4.510;2023-04-15T01:39:14;100122.00;;;8.40
15607;BMP180;7865;50.918;4.510;2023-04-15T01:44:16;100129.00;;;8.40
15607;BMP180;7865;50.918;4.510;2023-04-15T01:49:18;100124.00;;;8.40
15607;BMP180;7865;50.918;4.510;2023-04-15T01:54:20;100119.00;;;8.40
15607;BMP180;7865;50.918;4.510;2023-04-15T01:59:22;100116.00;;;8.40
15607;BMP180;7865;50.918;4.510;2023-04-15T02:04:24;100112.00;;;8.40
15607;BMP180;7865;50.918;4.510;2023-04-15T02:09:26;100113.00;;;8.40
15607;BMP180;7865;50.918;4.510;2023-04-15T02:14:28;100113.00;;;8.50
15607;BMP180;7865;50.918;4.510;2023-04-15T02:19:30;100116.00;;;8.50
15607;BMP180;7865;50.918;4.510;2023-04-15T02:24:33;100123.00;;;8.40
15607;BMP180;7865;50.918;4.510;2023-04-15T02:29:37;100125.00;;;8.40
15607;BMP180;7865;50.918;4.510;2023-04-15T02:34:39;100133.00;;;8.40
15607;BMP180;7865;50.918;4.510;2023-04-15T02:39:43;100137.00;;;8.40
15607;BMP180;7865;50.918;4.510;2023-04-15T02:44:45;100143.00;;;8.40
15607;BMP180;7865;50.918;4.510;2023-04-15T02:49:47;100164.00;;;8.40
15607;BMP180;7865;50.918;4.510;2023-04-15T02:54:50;100171.00;;;8.40
15607;BMP180;7865;50.918;4.510;2023-04-15T02:59:52;100180.00;;;8.40
15607;BMP180;7865;50.918;4.510;2023-04-15T03:04:54;100179.00;;;8.40
15607;BMP180;7865;50.918;4.510;2023-04-15T03:09:57;100194.00;;;8.40
15607;BMP180;7865;50.918;4.510;2023-04-15T03:15:00;100194.00;;;8.30
15607;BMP180;7865;50.918;4.510;2023-04-15T03:20:10;100204.00;;;8.30
15607;BMP180;7865;50.918;4.510;2023-04-15T03:25:12;100213.00;;;8.30
15607;BMP180;7865;50.918;4.510;2023-04-15T03:30:14;100221.00;;;8.30
15607;BMP180;7865;50.918;4.510;2023-04-15T03:35:16;100232.00;;;8.30
15607;BMP180;7865;50.918;4.510;2023-04-15T03:40:20;100228.00;;;8.30
15607;BMP180;7865;50.918;4.510;2023-04-15T03:45:22;100233.00;;;8.20
15607;BMP180;7865;50.918;4.510;2023-04-15T03:50:24;100238.00;;;8.10
15607;BMP180;7865;50.918;4.510;2023-04-15T03:55:26;100240.00;;;8.10
15607;BMP180;7865;50.918;4.510;2023-04-15T04:00:28;100255.00;;;8.00
15607;BMP180;7865;50.918;4.510;2023-04-15T04:05:31;100242.00;;;8.00
15607;BMP180;7865;50.918;4.510;2023-04-15T04:10:33;100247.00;;;7.90
15607;BMP180;7865;50.918;4.510;2023-04-15T04:15:35;100255.00;;;7.90
15607;BMP180;7865;50.918;4.510;2023-04-15T04:20:37;100260.00;;;7.90
15607;BMP180;7865;50.918;4.510;2023-04-15T04:25:39;100260.00;;;7.80
15607;BMP180;7865;50.918;4.510;2023-04-15T04:30:42;100264.00;;;7.80
15607;BMP180;7865;50.918;4.510;2023-04-15T04:35:45;100255.00;;;7.70
15607;BMP180;7865;50.918;4.510;2023-04-15T04:40:47;100270.00;;;7.60
15607;BMP180;7865;50.918;4.510;2023-04-15T04:45:49;100275.00;;;7.60
15607;BMP180;7865;50.918;4.510;2023-04-15T04:50:51;100286.00;;;7.60
15607;BMP180;7865;50.918;4.510;2023-04-15T04:55:54;100298.00;;;7.60
15607;BMP180;7865;50.918;4.510;2023-04-15T05:00:56;100312.00;;;7.70
15607;BMP180;7865;50.918;4.510;2023-04-15T05:05:59;100320.00;;;7.70
15607;BMP180;7865;50.918;4.510;2023-04-15T05:11:02;100335.00;;;7.80
15607;BMP180;7865;50.918;4.510;2023-04-15T05:16:04;100344.00;;;7.80
15607;BMP180;7865;50.918;4.510;2023-04-15T05:21:07;100348.00;;;7.80
15607;BMP180;7865;50.918;4.510;2023-04-15T05:26:09;100367.00;;;7.90
15607;BMP180;7865;50.918;4.510;2023-04-15T05:31:11;100388.00;;;7.90
15607;BMP180;7865;50.918;4.510;2023-04-15T05:36:13;100380.00;;;8.00
15607;BMP180;7865;50.918;4.510;2023-04-15T05:41:15;100392.00;;;8.00
15607;BMP180;7865;50.918;4.510;2023-04-15T05:46:20;100398.00;;;8.00
15607;BMP180;7865;50.918;4.510;2023-04-15T05:51:23;100400.00;;;8.10
15607;BMP180;7865;50.918;4.510;2023-04-15T05:56:25;100388.00;;;8.20
15607;BMP180;7865;50.918;4.510;2023-04-15T06:01:27;100408.00;;;8.30
15607;BMP180;7865;50.918;4.510;2023-04-15T06:06:29;100421.00;;;8.40
15607;BMP180;7865;50.918;4.510;2023-04-15T06:11:33;100440.00;;;8.60
15607;BMP180;7865;50.918;4.510;2023-04-15T06:16:35;100456.00;;;8.80
15607;BMP180;7865;50.918;4.510;2023-04-15T06:21:37;100460.00;;;9.00
15607;BMP180;7865;50.918;4.510;2023-04-15T06:26:39;100468.00;;;9.20
15607;BMP180;7865;50.918;4.510;2023-04-15T06:31:41;100457.00;;;9.40
15607;BMP180;7865;50.918;4.510;2023-04-15T06:36:44;100466.00;;;9.50
15607;BMP180;7865;50.918;4.510;2023-04-15T06:41:46;100469.00;;;9.60
15607;BMP180;7865;50.918;4.510;2023-04-15T06:46:48;100476.00;;;9.80
15607;BMP180;7865;50.918;4.510;2023-04-15T06:51:50;100471.00;;;10.00
15607;BMP180;7865;50.918;4.510;2023-04-15T06:56:53;100480.00;;;10.10
15607;BMP180;7865;50.918;4.510;2023-04-15T07:01:55;100492.00;;;10.40
15607;BMP180;7865;50.918;4.510;2023-04-15T07:06:57;100496.00;;;10.70
15607;BMP180;7865;50.918;4.510;2023-04-15T07:12:03;100506.00;;;10.90
15607;BMP180;7865;50.918;4.510;2023-04-15T07:17:05;100514.00;;;11.00
15607;BMP180;7865;50.918;4.510;2023-04-15T07:22:07;100526.00;;;11.00
15607;BMP180;7865;50.918;4.510;2023-04-15T07:27:10;100539.00;;;11.20
15607;BMP180;7865;50.918;4.510;2023-04-15T07:32:12;100545.00;;;11.50
15607;BMP180;7865;50.918;4.510;2023-04-15T07:37:14;100554.00;;;11.90
15607;BMP180;7865;50.918;4.510;2023-04-15T07:42:16;100555.00;;;12.60
15607;BMP180;7865;50.918;4.510;2023-04-15T07:47:18;100560.00;;;13.50
15607;BMP180;7865;50.918;4.510;2023-04-15T07:52:20;100560.00;;;14.20
15607;BMP180;7865;50.918;4.510;2023-04-15T07:57:22;100570.00;;;14.70
15607;BMP180;7865;50.918;4.510;2023-04-15T08:02:25;100575.00;;;14.10
15607;BMP180;7865;50.918;4.510;2023-04-15T08:07:27;100592.00;;;13.70
15607;BMP180;7865;50.918;4.510;2023-04-15T08:12:29;100595.00;;;13.50
15607;BMP180;7865;50.918;4.510;2023-04-15T08:17:32;100593.00;;;13.80
15607;BMP180;7865;50.918;4.510;2023-04-15T08:22:34;100590.00;;;14.90
15607;BMP180;7865;50.918;4.510;2023-04-15T08:27:36;100598.00;;;16.40
15607;BMP180;7865;50.918;4.510;2023-04-15T08:32:44;100611.00;;;17.40
15607;BMP180;7865;50.918;4.510;2023-04-15T08:37:48;100616.00;;;18.50
15607;BMP180;7865;50.918;4.510;2023-04-15T08:42:52;100623.00;;;19.20
15607;BMP180;7865;50.918;4.510;2023-04-15T08:47:57;100633.00;;;19.50
15607;BMP180;7865;50.918;4.510;2023-04-15T08:52:59;100634.00;;;19.50
15607;BMP180;7865;50.918;4.510;2023-04-15T08:58:02;100654.00;;;19.40
15607;BMP180;7865;50.918;4.510;2023-04-15T09:03:05;100661.00;;;19.50
15607;BMP180;7865;50.918;4.510;2023-04-15T09:08:08;100666.00;;;19.30
15607;BMP180;7865;50.918;4.510;2023-04-15T09:13:11;100668.00;;;19.20
15607;BMP180;7865;50.918;4.510;2023-04-15T09:18:13;100684.00;;;19.50
15607;BMP180;7865;50.918;4.510;2023-04-15T09:23:28;100691.00;;;19.90
15607;BMP180;7865;50.918;4.510;2023-04-15T09:28:30;100701.00;;;20.30
15607;BMP180;7865;50.918;4.510;2023-04-15T09:33:32;100707.00;;;20.10
15607;BMP180;7865;50.918;4.510;2023-04-15T09:38:35;100719.00;;;20.00
15607;BMP180;7865;50.918;4.510;2023-04-15T09:43:49;100732.00;;;20.20
15607;BMP180;7865;50.918;4.510;2023-04-15T09:49:07;100736.00;;;20.30
15607;BMP180;7865;50.918;4.510;2023-04-15T09:54:09;100749.00;;;20.30
15607;BMP180;7865;50.918;4.510;2023-04-15T09:59:12;100759.00;;;20.50
15607;BMP180;7865;50.918;4.510;2023-04-15T10:04:14;100756.00;;;20.90
15607;BMP180;7865;50.918;4.510;2023-04-15T10:09:17;100777.00;;;20.80
15607;BMP180;7865;50.918;4.510;2023-04-15T10:14:19;100786.00;;;20.90
15607;BMP180;7865;50.918;4.510;2023-04-15T10:19:25;100776.00;;;21.00
15607;BMP180;7865;50.918;4.510;2023-04-15T10:24:30;100791.00;;;21.20
15607;BMP180;7865;50.918;4.510;2023-04-15T10:29:33;100790.00;;;21.40
15607;BMP180;7865;50.918;4.510;2023-04-15T10:34:36;100797.00;;;21.40
15607;BMP180;7865;50.918;4.510;2023-04-15T10:39:41;100811.00;;;20.90
15607;BMP180;7865;50.918;4.510;2023-04-15T10:44:48;100816.00;;;21.50
15607;BMP180;7865;50.918;4.510;2023-04-15T10:49:57;100831.00;;;21.70
15607;BMP180;7865;50.918;4.510;2023-04-15T10:55:13;100832.00;;;21.30
15607;BMP180;7865;50.918;4.510;2023-04-15T11:00:19;100832.00;;;21.80
15607;BMP180;7865;50.918;4.510;2023-04-15T11:15:47;100831.00;;;22.20
15607;BMP180;7865;50.918;4.510;2023-04-15T11:20:54;100827.00;;;22.50
15607;BMP180;7865;50.918;4.510;2023-04-15T11:26:00;100849.00;;;22.80
15607;BMP180;7865;50.918;4.510;2023-04-15T11:31:14;100850.00;;;22.90
15607;BMP180;7865;50.918;4.510;2023-04-15T11:36:16;100863.00;;;23.00
15607;BMP180;7865;50.918;4.510;2023-04-15T11:41:22;100870.00;;;23.40
15607;BMP180;7865;50.918;4.510;2023-04-15T11:46:29;100879.00;;;23.30
15607;BMP180;7865;50.918;4.510;2023-04-15T11:51:33;100873.00;;;23.60
15607;BMP180;7865;50.918;4.510;2023-04-15T11:56:35;100893.00;;;23.10
15607;BMP180;7865;50.918;4.510;2023-04-15T12:01:38;100894.00;;;23.00
15607;BMP180;7865;50.918;4.510;2023-04-15T12:06:40;100895.00;;;23.20
15607;BMP180;7865;50.918;4.510;2023-04-15T12:11:51;100897.00;;;23.10
15607;BMP180;7865;50.918;4.510;2023-04-15T12:16:58;100907.00;;;23.30
15607;BMP180;7865;50.918;4.510;2023-04-15T12:22:03;100926.00;;;23.60
15607;BMP180;7865;50.918;4.510;2023-04-15T12:27:15;100930.00;;;23.80
15607;BMP180;7865;50.918;4.510;2023-04-15T12:32:18;100940.00;;;23.30
15607;BMP180;7865;50.918;4.510;2023-04-15T12:37:21;100950.00;;;21.70
15607;BMP180;7865;50.918;4.510;2023-04-15T12:42:23;100961.00;;;22.50
15607;BMP180;7865;50.918;4.510;2023-04-15T12:47:26;100960.00;;;22.70
15607;BMP180;7865;50.918;4.510;2023-04-15T12:52:28;100965.00;;;22.70
15607;BMP180;7865;50.918;4.510;2023-04-15T12:57:30;100980.00;;;22.30
15607;BMP180;7865;50.918;4.510;2023-04-15T13:02:32;100976.00;;;22.10
15607;BMP180;7865;50.918;4.510;2023-04-15T13:07:34;100976.00;;;22.30
15607;BMP180;7865;50.918;4.510;2023-04-15T13:12:36;100975.00;;;22.10
15607;BMP180;7865;50.918;4.510;2023-04-15T13:17:38;100994.00;;;22.50
15607;BMP180;7865;50.918;4.510;2023-04-15T13:22:40;100977.00;;;24.20
15607;BMP180;7865;50.918;4.510;2023-04-15T13:27:43;100981.00;;;26.00
15607;BMP180;7865;50.918;4.510;2023-04-15T13:32:45;100992.00;;;26.70
15607;BMP180;7865;50.918;4.510;2023-04-15T13:37:49;100985.00;;;27.40
15607;BMP180;7865;50.918;4.510;2023-04-15T13:42:53;101020.00;;;23.80
15607;BMP180;7865;50.918;4.510;2023-04-15T13:47:55;100990.00;;;24.50
15607;BMP180;7865;50.918;4.510;2023-04-15T13:52:58;101015.00;;;26.70
15607;BMP180;7865;50.918;4.510;2023-04-15T13:58:00;101025.00;;;28.50
15607;BMP180;7865;50.918;4.510;2023-04-15T14:03:02;101027.00;;;28.90
15607;BMP180;7865;50.918;4.510;2023-04-15T14:08:04;101036.00;;;28.50
15607;BMP180;7865;50.918;4.510;2023-04-15T14:13:06;101042.00;;;28.90
15607;BMP180;7865;50.918;4.510;2023-04-15T14:18:08;101065.00;;;29.10
15607;BMP180;7865;50.918;4.510;2023-04-15T14:23:10;101065.00;;;29.80
15607;BMP180;7865;50.918;4.510;2023-04-15T14:28:13;101066.00;;;29.60
15607;BMP180;7865;50.918;4.510;2023-04-15T14:33:15;101073.00;;;30.40
15607;BMP180;7865;50.918;4.510;2023-04-15T14:38:17;101070.00;;;30.00
15607;BMP180;7865;50.918;4.510;2023-04-15T14:43:19;101091.00;;;29.80
15607;BMP180;7865;50.918;4.510;2023-04-15T14:48:22;101083.00;;;29.70
15607;BMP180;7865;50.918;4.510;2023-04-15T14:53:24;101085.00;;;29.90
15607;BMP180;7865;50.918;4.510;2023-04-15T14:58:26;101122.00;;;24.60
15607;BMP180;7865;50.918;4.510;2023-04-15T15:03:28;101118.00;;;25.90
15607;BMP180;7865;50.918;4.510;2023-04-15T15:08:31;101124.00;;;25.50
15607;BMP180;7865;50.918;4.510;2023-04-15T15:13:33;101129.00;;;21.90
15607;BMP180;7865;50.918;4.510;2023-04-15T15:18:35;101131.00;;;20.50
15607;BMP180;7865;50.918;4.510;2023-04-15T15:23:37;101142.00;;;19.20
15607;BMP180;7865;50.918;4.510;2023-04-15T15:28:39;101142.00;;;18.30
15607;BMP180;7865;50.918;4.510;2023-04-15T15:33:43;101150.00;;;17.50
15607;BMP180;7865;50.918;4.510;2023-04-15T15:38:46;101155.00;;;16.60
15607;BMP180;7865;50.918;4.510;2023-04-15T15:43:48;101165.00;;;16.20
15607;BMP180;7865;50.918;4.510;2023-04-15T15:48:50;101158.00;;;16.00
15607;BMP180;7865;50.918;4.510;2023-04-15T15:53:52;101161.00;;;17.00
15607;BMP180;7865;50.918;4.510;2023-04-15T15:58:54;101173.00;;;17.00
15607;BMP180;7865;50.918;4.510;2023-04-15T16:03:56;101182.00;;;17.20
15607;BMP180;7865;50.918;4.510;2023-04-15T16:08:58;101196.00;;;17.50
15607;BMP180;7865;50.918;4.510;2023-04-15T16:14:01;101209.00;;;16.60
15607;BMP180;7865;50.918;4.510;2023-04-15T16:19:02;101213.00;;;15.80
15607;BMP180;7865;50.918;4.510;2023-04-15T16:24:05;101223.00;;;15.40
15607;BMP180;7865;50.918;4.510;2023-04-15T16:29:07;101224.00;;;15.20
15607;BMP180;7865;50.918;4.510;2023-04-15T16:34:09;101237.00;;;15.10
15607;BMP180;7865;50.918;4.510;2023-04-15T16:39:11;101234.00;;;15.20
15607;BMP180;7865;50.918;4.510;2023-04-15T16:44:13;101242.00;;;15.30
15607;BMP180;7865;50.918;4.510;2023-04-15T16:49:15;101249.00;;;15.20
15607;BMP180;7865;50.918;4.510;2023-04-15T16:54:17;101273.00;;;15.20
15607;BMP180;7865;50.918;4.510;2023-04-15T16:59:19;101283.00;;;15.10
15607;BMP180;7865;50.918;4.510;2023-04-15T17:04:22;101276.00;;;14.90
15607;BMP180;7865;50.918;4.510;2023-04-15T17:09:24;101279.00;;;14.60
15607;BMP180;7865;50.918;4.510;2023-04-15T17:14:26;101286.00;;;14.20
15607;BMP180;7865;50.918;4.510;2023-04-15T17:19:29;101298.00;;;14.00
15607;BMP180;7865;50.918;4.510;2023-04-15T17:24:38;101302.00;;;13.90
15607;BMP180;7865;50.918;4.510;2023-04-15T17:29:43;101309.00;;;13.80
15607;BMP180;7865;50.918;4.510;2023-04-15T17:35:06;101309.00;;;13.70
15607;BMP180;7865;50.918;4.510;2023-04-15T17:40:28;101307.00;;;13.50
15607;BMP180;7865;50.918;4.510;2023-04-15T17:45:50;101323.00;;;13.30
15607;BMP180;7865;50.918;4.510;2023-04-15T17:51:12;101323.00;;;13.20
15607;BMP180;7865;50.918;4.510;2023-04-15T17:56:34;101333.00;;;13.00
15607;BMP180;7865;50.918;4.510;2023-04-15T18:01:57;101338.00;;;12.80
15607;BMP180;7865;50.918;4.510;2023-04-15T18:07:19;101348.00;;;12.70
15607;BMP180;7865;50.918;4.510;2023-04-15T18:12:41;101355.00;;;12.50
15607;BMP180;7865;50.918;4.510;2023-04-15T18:18:03;101356.00;;;12.20
15607;BMP180;7865;50.918;4.510;2023-04-15T18:23:05;101364.00;;;12.10
15607;BMP180;7865;50.918;4.510;2023-04-15T18:28:08;101385.00;;;11.90
15607;BMP180;7865;50.918;4.510;2023-04-15T18:33:10;101388.00;;;11.80
15607;BMP180;7865;50.918;4.510;2023-04-15T18:38:12;101401.00;;;11.80
15607;BMP180;7865;50.918;4.510;2023-04-15T18:43:14;101409.00;;;11.70
15607;BMP180;7865;50.918;4.510;2023-04-15T18:48:16;101420.00;;;11.70
15607;BMP180;7865;50.918;4.510;2023-04-15T18:53:19;101421.00;;;11.50
15607;BMP180;7865;50.918;4.510;2023-04-15T18:58:22;101441.00;;;11.20
15607;BMP180;7865;50.918;4.510;2023-04-15T19:03:24;101438.00;;;11.00
15607;BMP180;7865;50.918;4.510;2023-04-15T19:08:26;101460.00;;;10.80
15607;BMP180;7865;50.918;4.510;2023-04-15T19:13:28;101468.00;;;10.60
15607;BMP180;7865;50.918;4.510;2023-04-15T19:18:30;101478.00;;;10.40
15607;BMP180;7865;50.918;4.510;2023-04-15T19:23:32;101481.00;;;10.10
15607;BMP180;7865;50.918;4.510;2023-04-15T19:28:34;101491.00;;;9.90
15607;BMP180;7865;50.918;4.510;2023-04-15T19:33:37;101508.00;;;9.70
15607;BMP180;7865;50.918;4.510;2023-04-15T19:38:39;101515.00;;;9.50
15607;BMP180;7865;50.918;4.510;2023-04-15T19:43:41;101511.00;;;9.30
15607;BMP180;7865;50.918;4.510;2023-04-15T19:48:43;101516.00;;;9.20
15607;BMP180;7865;50.918;4.510;2023-04-15T19:53:46;101528.00;;;9.00
15607;BMP180;7865;50.918;4.510;2023-04-15T19:58:50;101538.00;;;8.90
15607;BMP180;7865;50.918;4.510;2023-04-15T20:03:53;101540.00;;;8.70
15607;BMP180;7865;50.918;4.510;2023-04-15T20:08:56;101550.00;;;8.60
15607;BMP180;7865;50.918;4.510;2023-04-15T20:13:58;101559.00;;;8.50
15607;BMP180;7865;50.918;4.510;2023-04-15T20:19:01;101561.00;;;8.40
15607;BMP180;7865;50.918;4.510;2023-04-15T20:24:09;101573.00;;;8.30
15607;BMP180;7865;50.918;4.510;2023-04-15T20:29:12;101576.00;;;8.20
15607;BMP180;7865;50.918;4.510;2023-04-15T20:34:14;101580.00;;;8.10
15607;BMP180;7865;50.918;4.510;2023-04-15T20:39:16;101576.00;;;8.00
15607;BMP180;7865;50.918;4.510;2023-04-15T20:44:18;101583.00;;;7.90
15607;BMP180;7865;50.918;4.510;2023-04-15T20:49:20;101595.00;;;7.90
15607;BMP180;7865;50.918;4.510;2023-04-15T20:54:22;101603.00;;;7.80
15607;BMP180;7865;50.918;4.510;2023-04-15T20:59:24;101600.00;;;7.80
15607;BMP180;7865;50.918;4.510;2023-04-15T21:04:26;101608.00;;;7.70
15607;BMP180;7865;50.918;4.510;2023-04-15T21:09:28;101617.00;;;7.60
15607;BMP180;7865;50.918;4.510;2023-04-15T21:14:31;101617.00;;;7.50
15607;BMP180;7865;50.918;4.510;2023-04-15T21:19:34;101631.00;;;7.40
15607;BMP180;7865;50.918;4.510;2023-04-15T21:24:36;101633.00;;;7.30
15607;BMP180;7865;50.918;4.510;2023-04-15T21:29:38;101641.00;;;7.20
15607;BMP180;7865;50.918;4.510;2023-04-15T21:34:41;101643.00;;;7.10
15607;BMP180;7865;50.918;4.510;2023-04-15T21:39:43;101654.00;;;7.00
15607;BMP180;7865;50.918;4.510;2023-04-15T21:44:45;101652.00;;;7.00
15607;BMP180;7865;50.918;4.510;2023-04-15T21:49:47;101656.00;;;7.00
15607;BMP180;7865;50.918;4.510;2023-04-15T21:54:49;101670.00;;;7.10
15607;BMP180;7865;50.918;4.510;2023-04-15T21:59:51;101674.00;;;7.20
15607;BMP180;7865;50.918;4.510;2023-04-15T22:04:53;101667.00;;;7.20
15607;BMP180;7865;50.918;4.510;2023-04-15T22:09:55;101672.00;;;7.10
15607;BMP180;7865;50.918;4.510;2023-04-15T22:14:57;101682.00;;;7.00
15607;BMP180;7865;50.918;4.510;2023-04-15T22:19:59;101689.00;;;6.80
15607;BMP180;7865;50.918;4.510;2023-04-15T22:25:01;101698.00;;;6.80
15607;BMP180;7865;50.918;4.510;2023-04-15T22:30:04;101710.00;;;6.80
15607;BMP180;7865;50.918;4.510;2023-04-15T22:35:07;101707.00;;;6.80
15607;BMP180;7865;50.918;4.510;2023-04-15T22:40:09;101709.00;;;6.90
15607;BMP180;7865;50.918;4.510;2023-04-15T22:45:12;101723.00;;;7.10
15607;BMP180;7865;50.918;4.510;2023-04-15T22:50:14;101736.00;;;7.20
15607;BMP180;7865;50.918;4.510;2023-04-15T22:55:16;101741.00;;;7.20
15607;BMP180;7865;50.918;4.510;2023-04-15T23:00:21;101745.00;;;7.20
15607;BMP180;7865;50.918;4.510;2023-04-15T23:05:23;101746.00;;;7.10
15607;BMP180;7865;50.918;4.510;2023-04-15T23:10:25;101744.00;;;7.10
15607;BMP180;7865;50.918;4.510;2023-04-15T23:15:27;101751.00;;;7.10
15607;BMP180;7865;50.918;4.510;2023-04-15T23:20:29;101747.00;;;7.10
15607;BMP180;7865;50.918;4.510;2023-04-15T23:25:31;101756.00;;;7.20
15607;BMP180;7865;50.918;4.510;2023-04-15T23:30:33;101748.00;;;7.20
15607;BMP180;7865;50.918;4.510;2023-04-15T23:35:35;101758.00;;;7.30
15607;BMP180;7865;50.918;4.510;2023-04-15T23:40:38;101769.00;;;7.40
15607;BMP180;7865;50.918;4.510;2023-04-15T23:45:40;101763.00;;;7.40
15607;BMP180;7865;50.918;4.510;2023-04-15T23:50:42;101768.00;;;7.50
15607;BMP180;7865;50.918;4.510;2023-04-15T23:55:44;101771.00;;;7.50
